Time;durP1;ratioP1;P1;durP2;ratioP2;P2;SDS_P1;SDS_P2;PMS_P1;PMS_P2;Temp;Humidity;BMP_temperature;BMP_pressure;BME280_temperature;BME280_humidity;BME280_pressure;Samples;Min_cycle;Max_cycle;Signal;HPM_P1;HPM_P2
2021/09/04 00:00:42;;;;;;;0.43;0.43;;;14.80;99.90;;;;;;5055021;28;20037;-75
2021/09/04 00:03:08;;;;;;;1.08;1.02;;;14.60;99.90;;;;;;5054986;28;20025;-75
2021/09/04 00:05:33;;;;;;;0.10;0.10;;;14.60;99.90;;;;;;5054917;28;20025;-75
2021/09/04 00:07:59;;;;;;;1.95;1.27;;;14.60;99.90;;;;;;5037015;28;20032;-75
2021/09/04 00:10:25;;;;;;;4.10;0.85;;;14.50;99.90;;;;;;5054731;28;20025;-75
2021/09/04 00:12:51;;;;;;;0.22;0.22;;;14.60;99.90;;;;;;5037176;28;20031;-75
2021/09/04 00:15:17;;;;;;;0.35;0.35;;;14.60;99.90;;;;;;5036868;28;20039;-75
2021/09/04 00:17:43;;;;;;;0.77;0.52;;;14.50;99.90;;;;;;5054928;28;20043;-75
2021/09/04 00:20:10;;;;;;;0.10;0.10;;;14.40;99.90;;;;;;5037031;28;20082;-75
2021/09/04 00:22:35;;;;;;;0.80;0.80;;;14.50;99.90;;;;;;5054686;28;20024;-75
2021/09/04 00:25:01;;;;;;;0.20;0.20;;;14.40;99.90;;;;;;5020101;28;20036;-75
2021/09/04 00:27:27;;;;;;;0.30;0.30;;;14.50;99.90;;;;;;5036062;28;20033;-75
2021/09/04 00:29:53;;;;;;;0.85;0.85;;;14.50;99.90;;;;;;5054317;28;20103;-75
2021/09/04 00:32:19;;;;;;;0.22;0.22;;;14.60;99.90;;;;;;5036575;28;20025;-76
2021/09/04 00:34:44;;;;;;;0.35;0.35;;;14.60;99.90;;;;;;5036525;28;20437;-76
2021/09/04 00:37:10;;;;;;;0.20;0.20;;;14.50;99.90;;;;;;5054437;28;20021;-76
2021/09/04 00:39:36;;;;;;;0.20;0.20;;;14.60;99.90;;;;;;5036419;28;20029;-76
2021/09/04 00:42:02;;;;;;;0.43;0.43;;;14.50;99.90;;;;;;5019937;28;20526;-76
2021/09/04 00:44:28;;;;;;;0.10;0.10;;;14.40;99.90;;;;;;5054361;28;20112;-76
2021/09/04 00:47:05;;;;;;;0.13;0.13;;;14.40;99.90;;;;;;5036348;28;20163;-76
2021/09/04 00:49:33;;;;;;;0.30;0.30;;;14.30;99.90;;;;;;5036206;28;20025;-75
2021/09/04 00:51:59;;;;;;;0.10;0.10;;;14.40;99.90;;;;;;5054109;28;20577;-76
2021/09/04 00:54:25;;;;;;;0.17;0.17;;;14.40;99.90;;;;;;5054114;28;20025;-76
2021/09/04 00:56:51;;;;;;;1.02;0.65;;;14.30;99.90;;;;;;5036058;28;20028;-75
2021/09/04 00:59:17;;;;;;;0.10;0.10;;;14.30;99.90;;;;;;5019546;28;20017;-75
2021/09/04 01:01:43;;;;;;;0.10;0.10;;;14.30;99.90;;;;;;5053947;28;20063;-76
2021/09/04 01:04:09;;;;;;;0.30;0.30;;;14.20;99.90;;;;;;5036119;28;20083;-76
2021/09/04 01:06:35;;;;;;;0.35;0.35;;;14.20;99.90;;;;;;5035952;28;20025;-76
2021/09/04 01:09:02;;;;;;;0.10;0.10;;;14.10;99.90;;;;;;5035656;28;20025;-76
2021/09/04 01:11:28;;;;;;;0.65;0.65;;;14.10;99.90;;;;;;5035742;28;20025;-76
2021/09/04 01:13:55;;;;;;;0.10;0.10;;;14.20;99.90;;;;;;5036027;28;20028;-76
2021/09/04 01:16:21;;;;;;;1.48;1.38;;;14.10;99.90;;;;;;5053699;28;20032;-76
2021/09/04 01:18:46;;;;;;;0.13;0.13;;;14.20;99.90;;;;;;5019087;28;20025;-76
2021/09/04 01:21:13;;;;;;;0.32;0.32;;;14.20;99.90;;;;;;5035685;28;20041;-76
2021/09/04 01:23:39;;;;;;;0.28;0.28;;;14.10;99.90;;;;;;5053692;28;20448;-76
2021/09/04 01:26:11;;;;;;;0.15;0.15;;;14.00;99.90;;;;;;5053490;28;20021;-76
2021/09/04 01:28:37;;;;;;;;;;;14.00;99.90;;;;;;5019387;28;20032;-76
2021/09/04 01:31:04;;;;;;;0.25;0.25;;;14.00;99.90;;;;;;5035501;28;20390;-76
2021/09/04 01:33:30;;;;;;;0.20;0.20;;;13.90;99.90;;;;;;5035546;28;20017;-76
2021/09/04 01:35:56;;;;;;;0.20;0.20;;;13.90;99.90;;;;;;5053198;28;20025;-76
2021/09/04 01:38:22;;;;;;;0.10;0.10;;;13.80;99.90;;;;;;5053189;28;20362;-76
2021/09/04 01:40:48;;;;;;;0.00;0.00;;;13.90;99.90;;;;;;5052239;28;20453;-76
2021/09/04 01:43:14;;;;;;;0.10;0.10;;;14.00;99.90;;;;;;5035291;28;20134;-76
2021/09/04 01:45:39;;;;;;;0.52;0.52;;;14.20;99.90;;;;;;5035505;28;20513;-76
2021/09/04 01:48:05;;;;;;;0.80;0.80;;;14.10;99.90;;;;;;5018671;28;20033;-76
2021/09/04 01:50:32;;;;;;;1.20;1.10;;;13.90;99.90;;;;;;5018621;28;20029;-76
2021/09/04 01:52:58;;;;;;;0.20;0.20;;;13.90;99.90;;;;;;5035235;28;20033;-76
2021/09/04 01:55:23;;;;;;;0.90;0.73;;;13.90;99.90;;;;;;5035065;28;20028;-76
2021/09/04 01:57:49;;;;;;;0.20;0.20;;;14.00;99.90;;;;;;5052777;28;20032;-76
2021/09/04 02:00:16;;;;;;;0.10;0.10;;;13.90;99.90;;;;;;5052830;28;20094;-76
2021/09/04 02:02:43;;;;;;;0.22;0.22;;;13.90;99.90;;;;;;5035025;28;20020;-76
2021/09/04 02:05:10;;;;;;;0.70;0.30;;;13.80;99.90;;;;;;5034899;28;20025;-76
2021/09/04 02:07:36;;;;;;;0.25;0.25;;;13.80;99.90;;;;;;5052668;28;20024;-76
2021/09/04 02:10:04;;;;;;;0.25;0.25;;;13.80;99.90;;;;;;5052596;28;20086;-76
2021/09/04 02:12:29;;;;;;;0.28;0.28;;;13.80;99.90;;;;;;5052422;28;20060;-76
2021/09/04 02:14:55;;;;;;;0.20;0.20;;;13.70;99.90;;;;;;5052607;28;20063;-76
2021/09/04 02:17:21;;;;;;;0.10;0.10;;;13.70;99.90;;;;;;5034643;28;20140;-76
2021/09/04 02:19:47;;;;;;;0.10;0.10;;;13.50;99.90;;;;;;5052461;28;20028;-76
2021/09/04 02:22:13;;;;;;;0.10;0.10;;;13.30;99.90;;;;;;5052497;28;20025;-76
2021/09/04 02:24:39;;;;;;;0.10;0.10;;;13.30;99.90;;;;;;5034465;28;20508;-75
2021/09/04 02:27:05;;;;;;;0.10;0.10;;;13.30;99.90;;;;;;5034560;28;20025;-76
2021/09/04 02:29:31;;;;;;;0.17;0.17;;;13.40;99.90;;;;;;5034512;28;20025;-75
2021/09/04 02:31:57;;;;;;;0.13;0.13;;;13.50;99.90;;;;;;5052219;28;20033;-75
2021/09/04 02:34:23;;;;;;;0.13;0.13;;;13.50;99.90;;;;;;5052379;28;20155;-76
2021/09/04 02:36:48;;;;;;;0.20;0.20;;;13.50;99.90;;;;;;5052214;28;20021;-76
2021/09/04 02:39:14;;;;;;;5.22;1.42;;;13.40;99.90;;;;;;5034195;28;20117;-76
2021/09/04 02:41:40;;;;;;;0.63;0.63;;;13.40;99.90;;;;;;5052030;28;20044;-76
2021/09/04 02:44:06;;;;;;;4.28;3.30;;;13.50;99.90;;;;;;5017797;28;20039;-76
2021/09/04 02:46:32;;;;;;;0.10;0.10;;;13.50;99.90;;;;;;5052065;28;20028;-76
2021/09/04 02:48:58;;;;;;;0.20;0.20;;;13.40;99.90;;;;;;5034014;28;20532;-77
2021/09/04 02:51:23;;;;;;;0.20;0.20;;;13.60;99.90;;;;;;5033723;28;20392;-75
2021/09/04 02:53:49;;;;;;;0.20;0.20;;;13.60;99.90;;;;;;5052106;28;20021;-76
2021/09/04 02:56:15;;;;;;;0.38;0.38;;;13.70;99.90;;;;;;5051890;28;20025;-76
2021/09/04 02:58:40;;;;;;;0.10;0.10;;;13.60;99.90;;;;;;5017491;28;20463;-76
2021/09/04 03:01:06;;;;;;;0.20;0.20;;;13.70;99.90;;;;;;5051934;28;20090;-76
2021/09/04 03:03:32;;;;;;;0.75;0.52;;;13.60;99.90;;;;;;5034144;28;20048;-76
2021/09/04 03:06:01;;;;;;;0.17;0.17;;;13.60;99.90;;;;;;5051748;28;20100;-76
2021/09/04 03:08:27;;;;;;;0.17;0.17;;;13.60;99.90;;;;;;5033791;28;20028;-76
2021/09/04 03:10:53;;;;;;;1.10;1.05;;;13.60;99.90;;;;;;5051699;28;20029;-76
2021/09/04 03:13:19;;;;;;;0.85;0.85;;;13.60;99.90;;;;;;5033954;28;20029;-76
2021/09/04 03:15:44;;;;;;;0.20;0.20;;;13.70;99.90;;;;;;5051769;28;20083;-76
2021/09/04 03:18:10;;;;;;;0.20;0.20;;;13.80;99.90;;;;;;5033673;28;20049;-76
2021/09/04 03:20:36;;;;;;;0.20;0.20;;;13.70;99.90;;;;;;5034078;28;20028;-76
2021/09/04 03:23:01;;;;;;;0.10;0.10;;;13.70;99.90;;;;;;5051776;28;20021;-76
2021/09/04 03:25:27;;;;;;;0.13;0.13;;;13.70;99.90;;;;;;5051672;28;20096;-76
2021/09/04 03:27:53;;;;;;;0.20;0.20;;;13.80;99.90;;;;;;5051468;28;20022;-76
2021/09/04 03:30:19;;;;;;;0.20;0.20;;;13.80;99.90;;;;;;5033694;28;20025;-76
2021/09/04 03:32:44;;;;;;;0.20;0.20;;;13.70;99.90;;;;;;5033740;28;20416;-76
2021/09/04 03:35:10;;;;;;;0.20;0.20;;;13.70;99.90;;;;;;5033727;28;20400;-76
2021/09/04 03:37:36;;;;;;;0.20;0.20;;;13.80;99.90;;;;;;5051374;28;20032;-76
2021/09/04 03:40:03;;;;;;;0.10;0.10;;;13.80;99.90;;;;;;5033735;28;20021;-75
2021/09/04 03:42:29;;;;;;;0.73;0.73;;;13.80;99.90;;;;;;5051525;28;20036;-76
2021/09/04 03:44:55;;;;;;;0.10;0.10;;;13.90;99.90;;;;;;5051458;28;20025;-76
2021/09/04 03:47:21;;;;;;;0.10;0.10;;;14.00;99.90;;;;;;5051446;28;20051;-76
2021/09/04 03:49:46;;;;;;;0.20;0.20;;;13.80;99.90;;;;;;5033461;28;20057;-76
2021/09/04 03:52:12;;;;;;;0.20;0.20;;;13.80;99.90;;;;;;5033654;28;20021;-76
2021/09/04 03:54:38;;;;;;;0.13;0.13;;;13.90;99.90;;;;;;5033555;28;20029;-76
2021/09/04 03:57:04;;;;;;;0.10;0.10;;;14.00;99.90;;;;;;5017255;28;20027;-76
2021/09/04 03:59:29;;;;;;;0.10;0.10;;;14.00;99.90;;;;;;5051179;28;20017;-76
2021/09/04 04:01:55;;;;;;;0.43;0.43;;;13.90;99.90;;;;;;5017028;28;20079;-76
2021/09/04 04:04:21;;;;;;;0.20;0.20;;;13.80;99.90;;;;;;5020326;28;20396;-76
2021/09/04 04:06:46;;;;;;;0.20;0.20;;;13.80;99.90;;;;;;5037327;28;20021;-76
2021/09/04 04:09:12;;;;;;;0.52;0.52;;;13.80;99.90;;;;;;5036953;28;20498;-76
2021/09/04 04:11:39;;;;;;;0.20;0.20;;;13.90;99.90;;;;;;5036768;28;20036;-76
2021/09/04 04:14:04;;;;;;;0.10;0.10;;;13.90;99.90;;;;;;5036983;28;20056;-76
2021/09/04 04:16:30;;;;;;;0.10;0.10;;;14.00;99.90;;;;;;5054786;28;20028;-76
2021/09/04 04:18:56;;;;;;;0.20;0.20;;;14.10;99.90;;;;;;5020258;28;20086;-76
2021/09/04 04:21:22;;;;;;;0.20;0.20;;;14.10;99.90;;;;;;5054796;28;20106;-76
2021/09/04 04:23:47;;;;;;;0.10;0.10;;;14.10;99.90;;;;;;5036385;28;20036;-76
2021/09/04 04:26:13;;;;;;;0.20;0.20;;;14.00;99.90;;;;;;5054678;28;20040;-76
2021/09/04 04:28:39;;;;;;;0.20;0.20;;;13.90;99.90;;;;;;5054425;28;20017;-76
2021/09/04 04:31:05;;;;;;;0.15;0.15;;;13.80;99.90;;;;;;5020235;28;20048;-75
2021/09/04 04:33:31;;;;;;;0.10;0.10;;;13.90;99.90;;;;;;5036552;28;20150;-76
2021/09/04 04:35:56;;;;;;;0.10;0.10;;;13.90;99.90;;;;;;5054326;28;20485;-76
2021/09/04 04:38:22;;;;;;;0.10;0.10;;;13.90;99.90;;;;;;5054188;28;20063;-76
2021/09/04 04:40:48;;;;;;;0.17;0.17;;;14.00;99.90;;;;;;5054511;28;20025;-76
2021/09/04 04:43:13;;;;;;;0.40;0.40;;;14.10;99.90;;;;;;5054449;28;20027;-76
2021/09/04 04:45:39;;;;;;;0.10;0.10;;;14.20;99.90;;;;;;5019885;28;20025;-76
2021/09/04 04:48:05;;;;;;;0.50;0.50;;;14.10;99.90;;;;;;5054084;28;20025;-76
2021/09/04 04:50:31;;;;;;;0.20;0.20;;;14.10;99.90;;;;;;5036334;28;20469;-76
2021/09/04 04:52:57;;;;;;;0.10;0.10;;;14.00;99.90;;;;;;5054219;28;20104;-76
2021/09/04 04:55:22;;;;;;;0.10;0.10;;;13.90;99.90;;;;;;5036248;28;20503;-76
2021/09/04 04:57:48;;;;;;;0.50;0.50;;;13.80;99.90;;;;;;5053984;28;20025;-76
2021/09/04 05:00:15;;;;;;;0.20;0.20;;;13.70;99.90;;;;;;5036233;28;20028;-76
2021/09/04 05:02:41;;;;;;;1.30;1.23;;;13.50;99.90;;;;;;5035990;28;20021;-76
2021/09/04 05:05:08;;;;;;;1.55;0.57;;;13.50;99.90;;;;;;5053964;28;20039;-76
2021/09/04 05:07:34;;;;;;;0.30;0.30;;;13.50;99.90;;;;;;5036057;28;20115;-76
2021/09/04 05:10:00;;;;;;;2.15;0.95;;;13.50;99.90;;;;;;5053699;28;20021;-76
2021/09/04 05:12:26;;;;;;;0.20;0.20;;;13.50;99.90;;;;;;5019461;28;20492;-76
2021/09/04 05:14:52;;;;;;;0.20;0.20;;;13.40;99.90;;;;;;5036349;28;20040;-76
2021/09/04 05:17:17;;;;;;;0.10;0.10;;;13.40;99.90;;;;;;5035894;28;20504;-76
2021/09/04 05:19:43;;;;;;;0.20;0.20;;;13.30;99.90;;;;;;5053604;28;20021;-76
2021/09/04 05:22:09;;;;;;;3.35;3.20;;;13.40;99.90;;;;;;5053625;28;20060;-76
2021/09/04 05:24:34;;;;;;;0.15;0.15;;;13.50;99.90;;;;;;5053682;28;20079;-76
2021/09/04 05:27:00;;;;;;;0.20;0.20;;;13.50;99.90;;;;;;5019063;28;20033;-76
2021/09/04 05:29:27;;;;;;;0.10;0.10;;;13.60;99.90;;;;;;5035158;28;20039;-76
2021/09/04 05:31:52;;;;;;;0.10;0.10;;;13.60;99.90;;;;;;5065369;28;20473;-76
2021/09/04 05:34:18;;;;;;;0.63;0.63;;;13.60;99.90;;;;;;5028698;28;20020;-76
2021/09/04 05:36:44;;;;;;;0.10;0.10;;;13.50;99.90;;;;;;5064038;28;20473;-76
2021/09/04 05:39:10;;;;;;;0.20;0.20;;;13.50;99.90;;;;;;5035097;28;20534;-76
2021/09/04 05:41:36;;;;;;;0.13;0.13;;;13.60;99.90;;;;;;5034809;28;20027;-76
2021/09/04 05:44:02;;;;;;;0.10;0.10;;;13.70;99.90;;;;;;5053320;28;20021;-76
2021/09/04 05:46:27;;;;;;;0.10;0.10;;;13.90;99.90;;;;;;5035144;28;20036;-76
2021/09/04 05:48:53;;;;;;;0.20;0.20;;;14.00;99.90;;;;;;5036377;28;20021;-73
2021/09/04 05:51:19;;;;;;;0.20;0.20;;;14.00;99.90;;;;;;5054970;28;20021;-76
2021/09/04 05:53:45;;;;;;;0.45;0.35;;;13.90;99.90;;;;;;5069166;28;20020;-76
2021/09/04 05:56:11;;;;;;;0.10;0.10;;;13.90;99.90;;;;;;5036396;28;20036;-77
2021/09/04 05:58:39;;;;;;;0.13;0.13;;;14.00;99.90;;;;;;5004660;28;20028;-76
2021/09/04 06:01:05;;;;;;;0.52;0.30;;;14.10;99.90;;;;;;5018671;28;20550;-76
2021/09/04 06:03:31;;;;;;;1.02;0.63;;;14.10;99.90;;;;;;5052839;28;20029;-76
2021/09/04 06:05:57;;;;;;;0.10;0.10;;;14.10;99.90;;;;;;5034576;28;20095;-76
2021/09/04 06:08:24;;;;;;;0.40;0.40;;;14.20;99.90;;;;;;5016310;28;20112;-76
2021/09/04 06:10:51;;;;;;;0.10;0.10;;;14.20;99.90;;;;;;5033051;28;20056;-76
2021/09/04 06:13:17;;;;;;;0.20;0.20;;;14.30;99.90;;;;;;5050786;28;20532;-76
2021/09/04 06:15:43;;;;;;;0.80;0.80;;;14.40;99.90;;;;;;5058784;28;20051;-76
2021/09/04 06:18:09;;;;;;;0.38;0.38;;;14.50;99.90;;;;;;5033903;28;20073;-76
2021/09/04 06:20:34;;;;;;;0.50;0.50;;;14.50;99.90;;;;;;5051285;28;20029;-76
2021/09/04 06:23:00;;;;;;;1.73;0.90;;;14.60;99.90;;;;;;5033370;28;20048;-76
2021/09/04 06:25:26;;;;;;;0.20;0.20;;;14.70;99.90;;;;;;5058817;28;20029;-75
2021/09/04 06:27:52;;;;;;;2.03;1.60;;;14.80;99.90;;;;;;5058650;28;20028;-76
2021/09/04 06:30:17;;;;;;;0.10;0.10;;;14.90;99.90;;;;;;5016705;28;20071;-76
2021/09/04 06:32:43;;;;;;;0.10;0.10;;;15.00;99.90;;;;;;5014510;28;20041;-76
2021/09/04 06:35:09;;;;;;;0.52;0.52;;;15.20;99.90;;;;;;5017761;28;20048;-76
2021/09/04 06:37:35;;;;;;;0.10;0.10;;;15.30;99.90;;;;;;5034756;28;20025;-76
2021/09/04 06:40:01;;;;;;;0.10;0.10;;;15.30;99.90;;;;;;5052169;28;20431;-76
2021/09/04 06:42:27;;;;;;;0.10;0.10;;;15.40;99.90;;;;;;5035754;28;20024;-76
2021/09/04 06:44:53;;;;;;;0.10;0.10;;;15.40;99.90;;;;;;5051455;28;20021;-76
2021/09/04 06:47:18;;;;;;;0.57;0.57;;;15.50;99.90;;;;;;5052666;28;20032;-76
2021/09/04 06:49:44;;;;;;;0.10;0.10;;;15.50;99.90;;;;;;5050334;28;20021;-76
2021/09/04 06:52:10;;;;;;;0.20;0.20;;;15.70;99.90;;;;;;5051610;28;20036;-76
2021/09/04 06:54:35;;;;;;;0.20;0.20;;;15.80;99.90;;;;;;5052034;28;20027;-77
2021/09/04 06:57:02;;;;;;;0.10;0.10;;;15.90;99.90;;;;;;5053029;28;20498;-76
2021/09/04 06:59:29;;;;;;;0.10;0.10;;;16.00;99.90;;;;;;5017442;28;20047;-76
2021/09/04 07:01:55;;;;;;;0.30;0.30;;;16.20;99.90;;;;;;5017382;28;20029;-76
2021/09/04 07:04:20;;;;;;;0.10;0.10;;;16.40;99.90;;;;;;5051944;28;20420;-76
2021/09/04 07:06:46;;;;;;;0.68;0.68;;;16.40;99.90;;;;;;5034092;28;20029;-77
2021/09/04 07:09:12;;;;;;;0.10;0.10;;;16.50;99.90;;;;;;5034104;28;20476;-76
2021/09/04 07:11:38;;;;;;;0.10;0.10;;;16.60;99.90;;;;;;5051618;28;20029;-76
2021/09/04 07:14:04;;;;;;;0.10;0.10;;;16.70;99.90;;;;;;5050555;28;20049;-76
2021/09/04 07:16:30;;;;;;;0.10;0.10;;;16.80;99.90;;;;;;5033792;28;20022;-76
2021/09/04 07:18:56;;;;;;;0.00;0.00;;;16.90;99.90;;;;;;5051563;28;20021;-76
2021/09/04 07:21:21;;;;;;;0.10;0.10;;;17.00;99.90;;;;;;5051733;28;20147;-76
2021/09/04 07:23:47;;;;;;;0.10;0.10;;;16.90;99.90;;;;;;5033905;28;20097;-76
2021/09/04 07:26:13;;;;;;;0.10;0.10;;;17.00;99.90;;;;;;5067092;28;20102;-77
2021/09/04 07:28:39;;;;;;;1.10;1.00;;;17.10;99.90;;;;;;5034671;28;20021;-76
2021/09/04 07:31:04;;;;;;;0.30;0.30;;;17.20;99.90;;;;;;5033679;28;20025;-76
2021/09/04 07:33:30;;;;;;;0.10;0.10;;;17.20;99.90;;;;;;5033734;28;20027;-76
2021/09/04 07:35:56;;;;;;;0.10;0.10;;;17.40;99.90;;;;;;5035060;28;20021;-77
2021/09/04 07:38:23;;;;;;;0.10;0.10;;;17.40;99.90;;;;;;5038415;28;20075;-77
2021/09/04 07:40:50;;;;;;;0.10;0.10;;;17.40;99.90;;;;;;5073585;28;20029;-76
2021/09/04 07:43:16;;;;;;;0.20;0.20;;;17.50;99.90;;;;;;5071371;28;20087;-76
2021/09/04 07:45:42;;;;;;;0.10;0.10;;;17.60;99.90;;;;;;5054265;28;20029;-76
2021/09/04 07:48:07;;;;;;;0.10;0.10;;;17.70;99.90;;;;;;5037058;28;20025;-76
2021/09/04 07:50:34;;;;;;;0.10;0.10;;;17.90;99.90;;;;;;5037481;28;20123;-76
2021/09/04 07:53:00;;;;;;;0.95;0.55;;;18.00;99.90;;;;;;5037643;28;20029;-76
2021/09/04 07:55:26;;;;;;;0.10;0.10;;;18.20;99.90;;;;;;5056055;28;20024;-79
2021/09/04 07:57:51;;;;;;;0.10;0.10;;;18.20;99.90;;;;;;5036894;28;20025;-76
2021/09/04 08:00:17;;;;;;;0.10;0.10;;;18.30;99.90;;;;;;5054230;28;20481;-76
2021/09/04 08:02:43;;;;;;;0.20;0.20;;;18.40;99.90;;;;;;5036785;28;20400;-76
2021/09/04 08:05:10;;;;;;;0.22;0.22;;;18.60;99.90;;;;;;5055006;28;20120;-76
2021/09/04 08:07:36;;;;;;;0.73;0.73;;;18.90;99.90;;;;;;5054939;28;20115;-74
2021/09/04 08:10:03;;;;;;;0.10;0.10;;;19.10;99.90;;;;;;5036637;28;20520;-74
2021/09/04 08:12:29;;;;;;;0.10;0.10;;;19.30;99.90;;;;;;5036311;28;20063;-74
2021/09/04 08:14:55;;;;;;;16.40;1.48;;;19.50;99.90;;;;;;5036773;28;20098;-74
2021/09/04 08:17:21;;;;;;;0.10;0.10;;;19.60;99.90;;;;;;5070204;28;20024;-74
2021/09/04 08:19:46;;;;;;;0.10;0.10;;;19.70;99.90;;;;;;5036689;28;20033;-74
2021/09/04 08:22:12;;;;;;;0.38;0.38;;;20.00;99.90;;;;;;5054804;28;20083;-74
2021/09/04 08:24:38;;;;;;;0.10;0.10;;;20.20;99.90;;;;;;5036709;28;20425;-74
2021/09/04 08:27:04;;;;;;;0.47;0.47;;;20.40;99.90;;;;;;5054749;28;20035;-74
2021/09/04 08:29:30;;;;;;;0.10;0.10;;;20.60;99.90;;;;;;5069787;28;20024;-74
2021/09/04 08:31:55;;;;;;;0.45;0.30;;;20.60;99.90;;;;;;5054488;28;20036;-74
2021/09/04 08:34:21;;;;;;;0.10;0.10;;;20.60;99.90;;;;;;5053249;28;20119;-74
2021/09/04 08:36:47;;;;;;;0.10;0.10;;;20.70;99.90;;;;;;5036677;28;20025;-75
2021/09/04 08:39:13;;;;;;;0.10;0.10;;;20.90;99.90;;;;;;5052944;28;20432;-74
2021/09/04 08:41:39;;;;;;;0.20;0.20;;;20.70;99.90;;;;;;5036418;28;20028;-74
2021/09/04 08:44:06;;;;;;;0.10;0.10;;;20.80;99.90;;;;;;5036245;28;20072;-74
2021/09/04 08:46:37;;;;;;;0.10;0.10;;;20.90;99.90;;;;;;5054121;28;20025;-76
2021/09/04 08:49:04;;;;;;;0.13;0.13;;;21.00;99.90;;;;;;5053391;28;20062;-75
2021/09/04 08:51:30;;;;;;;0.00;0.00;;;21.30;99.90;;;;;;5053870;28;20083;-75
2021/09/04 08:53:57;;;;;;;0.10;0.10;;;21.30;99.90;;;;;;5035901;28;20059;-75
2021/09/04 08:56:23;;;;;;;1.00;0.90;;;21.60;98.80;;;;;;5069419;28;20053;-75
2021/09/04 08:58:48;;;;;;;2.00;1.02;;;21.90;96.60;;;;;;5053753;28;20025;-75
2021/09/04 09:01:26;;;;;;;0.10;0.10;;;22.10;95.40;;;;;;5035976;28;20027;-75
2021/09/04 09:03:53;;;;;;;1.77;0.32;;;22.10;94.90;;;;;;5054047;28;20021;-75
2021/09/04 09:06:27;;;;;;;0.68;0.68;;;22.40;93.90;;;;;;5053932;28;20505;-75
2021/09/04 09:08:54;;;;;;;0.10;0.10;;;22.40;92.70;;;;;;5035971;28;20666;-76
2021/09/04 09:11:20;;;;;;;0.10;0.10;;;22.50;93.10;;;;;;5035926;28;20044;-75
2021/09/04 09:13:48;;;;;;;0.25;0.25;;;22.60;92.70;;;;;;5019147;28;20032;-75
2021/09/04 09:16:15;;;;;;;0.57;0.52;;;23.00;91.80;;;;;;5068993;28;20499;-75
2021/09/04 09:18:41;;;;;;;1.88;1.42;;;23.30;90.50;;;;;;5035611;28;20024;-76
2021/09/04 09:21:07;;;;;;;0.10;0.10;;;23.50;87.70;;;;;;5069147;28;20025;-75
2021/09/04 09:23:33;;;;;;;0.10;0.10;;;23.60;86.90;;;;;;5054099;28;20025;-75
2021/09/04 09:26:08;;;;;;;0.70;0.70;;;23.40;86.20;;;;;;5053480;28;20032;-75
2021/09/04 09:28:34;;;;;;;0.10;0.10;;;23.70;80.80;;;;;;5053393;28;20052;-75
2021/09/04 09:31:00;;;;;;;2.35;1.27;;;24.00;78.40;;;;;;5035371;28;20139;-75
2021/09/04 09:33:27;;;;;;;0.32;0.17;;;24.30;80.40;;;;;;5019118;28;20131;-75
2021/09/04 09:35:55;;;;;;;0.00;0.00;;;24.40;79.80;;;;;;5068553;28;20477;-75
2021/09/04 09:38:24;;;;;;;0.52;0.52;;;24.80;79.00;;;;;;5053194;28;20424;-75
2021/09/04 09:40:52;;;;;;;0.15;0.15;;;25.10;73.30;;;;;;5053125;28;20064;-75
2021/09/04 09:43:33;;;;;;;1.42;0.50;;;25.20;73.50;;;;;;5018810;28;20102;-75
2021/09/04 09:46:00;;;;;;;0.07;0.07;;;25.10;73.10;;;;;;5035116;28;20405;-75
2021/09/04 09:48:33;;;;;;;0.00;0.00;;;25.20;74.60;;;;;;5035066;28;20028;-75
2021/09/04 09:51:02;;;;;;;2.05;1.95;;;25.60;72.40;;;;;;5053034;28;20025;-75
2021/09/04 09:53:28;;;;;;;0.00;0.00;;;26.00;70.20;;;;;;5068508;28;20025;-75
2021/09/04 09:55:56;;;;;;;0.75;0.20;;;26.40;68.10;;;;;;5052831;28;20017;-75
2021/09/04 09:58:23;;;;;;;0.03;0.03;;;26.00;67.40;;;;;;5052914;28;20485;-75
2021/09/04 10:00:50;;;;;;;0.30;0.30;;;26.10;67.20;;;;;;5034156;28;20099;-75
2021/09/04 10:03:19;;;;;;;0.00;0.00;;;26.40;64.50;;;;;;5052677;28;20025;-75
2021/09/04 10:05:46;;;;;;;0.08;0.08;;;26.50;64.10;;;;;;5052649;28;20027;-75
2021/09/04 10:08:16;;;;;;;0.10;0.10;;;27.00;61.50;;;;;;5067796;28;20048;-76
2021/09/04 10:13:14;;;;;;;1.23;0.73;;;27.00;61.50;;;;;;5050955;28;20056;-73
2021/09/04 10:15:45;;;;;;;0.70;0.70;;;26.50;59.80;;;;;;5052492;28;20094;-73
2021/09/04 10:18:11;;;;;;;0.00;0.00;;;25.90;62.70;;;;;;5052514;28;20303;-72
2021/09/04 10:20:37;;;;;;;0.10;0.10;;;26.20;61.90;;;;;;5052650;28;20100;-72
2021/09/04 10:23:27;;;;;;;0.50;0.50;;;26.80;60.90;;;;;;5052423;28;20100;-72
2021/09/04 10:25:53;;;;;;;0.03;0.03;;;27.30;58.30;;;;;;5052259;28;20029;-73
2021/09/04 10:28:19;;;;;;;3.90;1.10;;;27.60;58.40;;;;;;5052240;28;20073;-73
2021/09/04 10:30:52;;;;;;;0.90;0.60;;;27.70;57.70;;;;;;5034316;28;20024;-74
2021/09/04 10:33:24;;;;;;;1.25;1.08;;;27.60;57.50;;;;;;5034371;28;20039;-74
2021/09/04 10:35:57;;;;;;;2.60;1.98;;;27.60;56.90;;;;;;5052121;28;20031;-73
2021/09/04 10:38:27;;;;;;;0.10;0.10;;;27.60;58.70;;;;;;5052323;28;20025;-73
2021/09/04 10:41:17;;;;;;;0.13;0.13;;;27.60;58.20;;;;;;5034454;28;20044;-74
2021/09/04 10:43:46;;;;;;;17.13;0.98;;;27.70;58.70;;;;;;5052136;28;20061;-74
2021/09/04 10:46:15;;;;;;;1.35;1.10;;;28.00;57.80;;;;;;5033993;28;20029;-73
2021/09/04 10:48:42;;;;;;;2.17;1.02;;;27.80;57.70;;;;;;5017691;28;20060;-74
2021/09/04 10:51:11;;;;;;;0.63;0.63;;;27.90;56.80;;;;;;5051953;28;20029;-74
2021/09/04 10:53:47;;;;;;;0.00;0.00;;;27.90;57.80;;;;;;5034089;28;20025;-73
2021/09/04 10:56:19;;;;;;;1.85;1.75;;;28.50;56.90;;;;;;5017544;28;20024;-73
2021/09/04 10:58:45;;;;;;;0.70;0.70;;;29.00;55.70;;;;;;5051843;28;20013;-73
2021/09/04 11:01:25;;;;;;;1.63;0.75;;;29.20;54.50;;;;;;5051705;28;20024;-74
2021/09/04 11:03:55;;;;;;;1.38;0.30;;;28.80;54.70;;;;;;5051880;28;20387;-73
2021/09/04 11:06:25;;;;;;;1.23;0.40;;;28.80;55.40;;;;;;5033902;28;20028;-73
2021/09/04 11:08:52;;;;;;;2.92;0.30;;;28.40;56.20;;;;;;5051745;28;20472;-74
2021/09/04 11:11:24;;;;;;;0.25;0.25;;;28.50;55.90;;;;;;5033379;28;20412;-73
2021/09/04 11:14:00;;;;;;;0.10;0.10;;;28.90;55.40;;;;;;5051872;28;20025;-73
2021/09/04 11:16:26;;;;;;;0.60;0.60;;;29.00;55.30;;;;;;5033932;28;20098;-73
2021/09/04 11:18:52;;;;;;;2.63;1.65;;;28.60;56.40;;;;;;5033942;28;20411;-73
2021/09/04 11:21:18;;;;;;;0.00;0.00;;;28.70;54.00;;;;;;5051678;28;20024;-73
2021/09/04 11:23:44;;;;;;;0.32;0.32;;;28.30;55.80;;;;;;5033787;28;20037;-74
2021/09/04 11:26:10;;;;;;;0.38;0.38;;;28.60;54.80;;;;;;5051370;28;20208;-74
2021/09/04 11:28:36;;;;;;;3.40;1.95;;;28.70;52.90;;;;;;5051495;28;20060;-73
2021/09/04 11:31:04;;;;;;;0.00;0.00;;;28.70;52.50;;;;;;5051559;28;20449;-73
2021/09/04 11:33:30;;;;;;;1.15;0.70;;;28.60;53.20;;;;;;5034068;28;20469;-73
2021/09/04 11:35:56;;;;;;;0.55;0.55;;;28.60;53.00;;;;;;5051519;28;20096;-73
2021/09/04 11:38:23;;;;;;;0.10;0.10;;;28.80;53.10;;;;;;5051389;28;20099;-73
2021/09/04 11:40:50;;;;;;;1.40;1.23;;;28.90;52.60;;;;;;5051445;28;20473;-73
2021/09/04 11:43:18;;;;;;;0.00;0.00;;;28.80;52.90;;;;;;5051492;28;20025;-73
2021/09/04 11:45:44;;;;;;;0.00;0.00;;;28.70;53.30;;;;;;5051410;28;20124;-74
2021/09/04 11:48:14;;;;;;;4.32;1.75;;;29.10;53.90;;;;;;5051412;28;20021;-73
2021/09/04 11:50:40;;;;;;;0.70;0.68;;;29.10;53.90;;;;;;5051256;28;20476;-73
2021/09/04 11:53:11;;;;;;;0.03;0.03;;;28.80;54.00;;;;;;5051585;28;20029;-73
2021/09/04 11:55:38;;;;;;;0.88;0.88;;;28.60;54.50;;;;;;5051182;28;20033;-73
2021/09/04 11:58:10;;;;;;;0.75;0.73;;;28.20;55.20;;;;;;5051289;28;20035;-73
2021/09/04 12:00:41;;;;;;;0.60;0.38;;;28.70;54.50;;;;;;5033404;28;20026;-73
2021/09/04 12:03:13;;;;;;;0.70;0.68;;;29.00;53.50;;;;;;5033595;28;20025;-73
2021/09/04 12:05:44;;;;;;;0.43;0.43;;;28.50;54.00;;;;;;5051087;28;20025;-73
2021/09/04 12:08:13;;;;;;;0.43;0.43;;;27.90;54.60;;;;;;5051105;28;20017;-73
2021/09/04 12:10:42;;;;;;;0.90;0.68;;;27.90;56.20;;;;;;5033311;28;20092;-73
2021/09/04 12:13:20;;;;;;;4.40;1.55;;;27.30;57.20;;;;;;5050943;28;20032;-73
2021/09/04 12:15:46;;;;;;;1.67;0.73;;;27.50;56.10;;;;;;5051091;28;20032;-73
2021/09/04 12:18:12;;;;;;;0.00;0.00;;;27.60;56.30;;;;;;5051011;28;20048;-73
2021/09/04 12:20:44;;;;;;;8.85;1.08;;;27.60;56.40;;;;;;5033275;28;20415;-73
2021/09/04 12:23:24;;;;;;;0.10;0.10;;;27.10;57.30;;;;;;5051031;28;20021;-73
2021/09/04 12:26:04;;;;;;;0.20;0.20;;;27.00;57.90;;;;;;5054564;28;20020;-73
2021/09/04 12:28:30;;;;;;;0.43;0.43;;;27.00;57.80;;;;;;5055515;28;20025;-73
2021/09/04 12:31:02;;;;;;;0.80;0.43;;;26.90;57.50;;;;;;5054514;28;20384;-73
2021/09/04 12:33:29;;;;;;;0.08;0.08;;;27.10;56.20;;;;;;5054503;28;20083;-73
2021/09/04 12:36:04;;;;;;;0.30;0.22;;;27.30;54.80;;;;;;5054436;28;20380;-73
2021/09/04 12:38:33;;;;;;;0.00;0.00;;;26.80;56.10;;;;;;5054280;28;20028;-73
2021/09/04 12:41:01;;;;;;;0.00;0.00;;;26.20;56.50;;;;;;5054417;28;20100;-73
2021/09/04 12:43:27;;;;;;;0.00;0.00;;;26.00;59.00;;;;;;5054331;28;20024;-73
2021/09/04 12:46:03;;;;;;;1.35;0.57;;;26.10;58.60;;;;;;5054228;28;20029;-73
2021/09/04 12:48:31;;;;;;;0.00;0.00;;;26.40;58.20;;;;;;5054239;28;20021;-73